sensor_id;sensor_type;location;lat;lon;timestamp;temperature;humidity
45339;DHT22;31071;51.478;5.710;2023-09-12T00:02:02;19.50;99.90
45339;DHT22;31071;51.478;5.710;2023-09-12T00:04:28;19.60;99.90
45339;DHT22;31071;51.478;5.710;2023-09-12T00:06:53;19.70;99.90
45339;DHT22;31071;51.478;5.710;2023-09-12T00:09:19;19.70;99.90
45339;DHT22;31071;51.478;5.710;2023-09-12T00:11:44;19.80;99.90
45339;DHT22;31071;51.478;5.710;2023-09-12T00:14:15;19.80;99.90
45339;DHT22;31071;51.478;5.710;2023-09-12T00:16:41;19.80;99.90
45339;DHT22;31071;51.478;5.710;2023-09-12T00:19:06;21.10;99.90
45339;DHT22;31071;51.478;5.710;2023-09-12T00:21:32;19.60;99.90
45339;DHT22;31071;51.478;5.710;2023-09-12T00:23:57;19.60;99.90
45339;DHT22;31071;51.478;5.710;2023-09-12T00:26:23;19.50;99.90
45339;DHT22;31071;51.478;5.710;2023-09-12T00:28:48;19.40;99.90
45339;DHT22;31071;51.478;5.710;2023-09-12T00:31:14;19.40;99.90
45339;DHT22;31071;51.478;5.710;2023-09-12T00:33:39;19.40;99.90
45339;DHT22;31071;51.478;5.710;2023-09-12T00:36:05;19.40;99.90
45339;DHT22;31071;51.478;5.710;2023-09-12T00:38:31;19.40;99.90
45339;DHT22;31071;51.478;5.710;2023-09-12T00:40:56;19.40;99.90
45339;DHT22;31071;51.478;5.710;2023-09-12T00:43:22;20.90;99.90
45339;DHT22;31071;51.478;5.710;2023-09-12T00:45:47;19.20;99.90
45339;DHT22;31071;51.478;5.710;2023-09-12T00:48:13;20.80;99.90
45339;DHT22;31071;51.478;5.710;2023-09-12T00:50:40;19.10;99.90
45339;DHT22;31071;51.478;5.710;2023-09-12T00:53:08;19.10;99.90
45339;DHT22;31071;51.478;5.710;2023-09-12T00:55:35;20.00;99.90
45339;DHT22;31071;51.478;5.710;2023-09-12T00:58:02;19.00;99.90
45339;DHT22;31071;51.478;5.710;2023-09-12T01:00:28;19.00;99.90
45339;DHT22;31071;51.478;5.710;2023-09-12T01:02:54;19.00;99.90
45339;DHT22;31071;51.478;5.710;2023-09-12T01:05:22;18.90;99.90
45339;DHT22;31071;51.478;5.710;2023-09-12T01:07:47;18.90;99.90
45339;DHT22;31071;51.478;5.710;2023-09-12T01:10:13;18.90;99.90
45339;DHT22;31071;51.478;5.710;2023-09-12T01:12:39;18.80;99.90
45339;DHT22;31071;51.478;5.710;2023-09-12T01:15:05;18.70;99.90
45339;DHT22;31071;51.478;5.710;2023-09-12T01:17:35;18.70;99.90
45339;DHT22;31071;51.478;5.710;2023-09-12T01:20:04;18.70;99.90
45339;DHT22;31071;51.478;5.710;2023-09-12T01:28:17;18.80;99.90
45339;DHT22;31071;51.478;5.710;2023-09-12T01:30:45;19.60;99.90
45339;DHT22;31071;51.478;5.710;2023-09-12T01:33:12;20.20;99.90
45339;DHT22;31071;51.478;5.710;2023-09-12T01:35:37;18.80;99.90
45339;DHT22;31071;51.478;5.710;2023-09-12T01:38:03;18.70;99.90
45339;DHT22;31071;51.478;5.710;2023-09-12T01:40:44;18.70;99.90
45339;DHT22;31071;51.478;5.710;2023-09-12T01:43:11;18.70;99.90
45339;DHT22;31071;51.478;5.710;2023-09-12T01:45:40;18.60;99.90
45339;DHT22;31071;51.478;5.710;2023-09-12T01:48:06;18.60;99.90
45339;DHT22;31071;51.478;5.710;2023-09-12T01:50:33;18.70;99.90
45339;DHT22;31071;51.478;5.710;2023-09-12T01:53:00;18.70;99.90
45339;DHT22;31071;51.478;5.710;2023-09-12T01:55:26;18.60;99.90
45339;DHT22;31071;51.478;5.710;2023-09-12T01:57:52;18.50;99.90
45339;DHT22;31071;51.478;5.710;2023-09-12T02:00:18;18.60;99.90
45339;DHT22;31071;51.478;5.710;2023-09-12T02:02:45;18.60;99.90
45339;DHT22;31071;51.478;5.710;2023-09-12T02:05:11;18.60;99.90
45339;DHT22;31071;51.478;5.710;2023-09-12T02:07:41;19.30;99.90
45339;DHT22;31071;51.478;5.710;2023-09-12T02:10:07;18.70;99.90
45339;DHT22;31071;51.478;5.710;2023-09-12T02:12:32;18.70;99.90
45339;DHT22;31071;51.478;5.710;2023-09-12T02:14:58;18.70;99.90
45339;DHT22;31071;51.478;5.710;2023-09-12T02:17:23;18.60;99.90
45339;DHT22;31071;51.478;5.710;2023-09-12T02:19:49;18.60;99.90
45339;DHT22;31071;51.478;5.710;2023-09-12T02:22:15;18.50;99.90
45339;DHT22;31071;51.478;5.710;2023-09-12T02:24:40;18.50;99.90
45339;DHT22;31071;51.478;5.710;2023-09-12T02:27:06;18.50;99.90
45339;DHT22;31071;51.478;5.710;2023-09-12T02:29:31;18.40;99.90
45339;DHT22;31071;51.478;5.710;2023-09-12T02:32:00;18.50;99.90
45339;DHT22;31071;51.478;5.710;2023-09-12T02:34:25;18.50;99.90
45339;DHT22;31071;51.478;5.710;2023-09-12T02:36:51;18.40;99.90
45339;DHT22;31071;51.478;5.710;2023-09-12T02:39:16;21.80;99.90
45339;DHT22;31071;51.478;5.710;2023-09-12T02:41:42;18.50;99.90
45339;DHT22;31071;51.478;5.710;2023-09-12T02:44:08;18.50;99.90
45339;DHT22;31071;51.478;5.710;2023-09-12T02:46:34;18.40;99.90
45339;DHT22;31071;51.478;5.710;2023-09-12T02:49:00;18.40;99.90
45339;DHT22;31071;51.478;5.710;2023-09-12T02:51:26;18.50;99.90
45339;DHT22;31071;51.478;5.710;2023-09-12T02:53:52;18.40;99.90
45339;DHT22;31071;51.478;5.710;2023-09-12T02:56:17;18.40;99.90
45339;DHT22;31071;51.478;5.710;2023-09-12T02:58:46;18.40;99.90
45339;DHT22;31071;51.478;5.710;2023-09-12T03:01:19;18.30;99.90
45339;DHT22;31071;51.478;5.710;2023-09-12T03:03:49;18.90;99.90
45339;DHT22;31071;51.478;5.710;2023-09-12T03:06:14;18.10;99.90
45339;DHT22;31071;51.478;5.710;2023-09-12T03:08:40;18.10;99.90
45339;DHT22;31071;51.478;5.710;2023-09-12T03:11:06;18.00;99.90
45339;DHT22;31071;51.478;5.710;2023-09-12T03:13:33;18.10;99.90
45339;DHT22;31071;51.478;5.710;2023-09-12T03:15:59;18.10;99.90
45339;DHT22;31071;51.478;5.710;2023-09-12T03:18:25;18.10;99.90
45339;DHT22;31071;51.478;5.710;2023-09-12T03:20:51;18.10;99.90
45339;DHT22;31071;51.478;5.710;2023-09-12T03:23:16;18.10;99.90
45339;DHT22;31071;51.478;5.710;2023-09-12T03:25:42;18.00;99.90
45339;DHT22;31071;51.478;5.710;2023-09-12T03:28:08;19.00;99.90
45339;DHT22;31071;51.478;5.710;2023-09-12T03:30:35;17.90;99.90
45339;DHT22;31071;51.478;5.710;2023-09-12T03:33:01;17.80;99.90
45339;DHT22;31071;51.478;5.710;2023-09-12T03:35:28;17.70;99.90
45339;DHT22;31071;51.478;5.710;2023-09-12T03:37:55;17.60;99.90
45339;DHT22;31071;51.478;5.710;2023-09-12T03:40:21;17.60;99.90
45339;DHT22;31071;51.478;5.710;2023-09-12T03:42:46;17.80;99.90
45339;DHT22;31071;51.478;5.710;2023-09-12T03:45:12;17.70;99.90
45339;DHT22;31071;51.478;5.710;2023-09-12T03:47:37;17.60;99.90
45339;DHT22;31071;51.478;5.710;2023-09-12T03:50:03;17.60;99.90
45339;DHT22;31071;51.478;5.710;2023-09-12T03:52:29;17.70;99.90
45339;DHT22;31071;51.478;5.710;2023-09-12T03:54:55;17.90;99.90
45339;DHT22;31071;51.478;5.710;2023-09-12T03:57:20;17.90;99.90
45339;DHT22;31071;51.478;5.710;2023-09-12T03:59:46;17.80;99.90
45339;DHT22;31071;51.478;5.710;2023-09-12T04:02:12;17.90;99.90
45339;DHT22;31071;51.478;5.710;2023-09-12T04:04:38;17.90;99.90
45339;DHT22;31071;51.478;5.710;2023-09-12T04:07:04;18.00;99.90
45339;DHT22;31071;51.478;5.710;2023-09-12T04:09:29;17.90;99.90
45339;DHT22;31071;51.478;5.710;2023-09-12T04:11:55;17.90;99.90
45339;DHT22;31071;51.478;5.710;2023-09-12T04:14:21;17.90;99.90
45339;DHT22;31071;51.478;5.710;2023-09-12T04:16:46;17.90;99.90
45339;DHT22;31071;51.478;5.710;2023-09-12T04:19:13;17.90;99.90
45339;DHT22;31071;51.478;5.710;2023-09-12T04:21:39;18.00;99.90
45339;DHT22;31071;51.478;5.710;2023-09-12T04:24:06;18.10;99.90
45339;DHT22;31071;51.478;5.710;2023-09-12T04:26:31;18.10;99.90
45339;DHT22;31071;51.478;5.710;2023-09-12T04:28:57;18.10;99.90
45339;DHT22;31071;51.478;5.710;2023-09-12T04:31:22;18.10;99.90
45339;DHT22;31071;51.478;5.710;2023-09-12T04:33:50;18.00;99.90
45339;DHT22;31071;51.478;5.710;2023-09-12T04:36:16;18.10;99.90
45339;DHT22;31071;51.478;5.710;2023-09-12T04:38:42;18.10;99.90
45339;DHT22;31071;51.478;5.710;2023-09-12T04:41:08;18.20;99.90
45339;DHT22;31071;51.478;5.710;2023-09-12T04:43:34;18.20;99.90
45339;DHT22;31071;51.478;5.710;2023-09-12T04:46:00;18.30;99.90
45339;DHT22;31071;51.478;5.710;2023-09-12T04:48:26;18.40;99.90
45339;DHT22;31071;51.478;5.710;2023-09-12T04:50:52;18.40;99.90
45339;DHT22;31071;51.478;5.710;2023-09-12T04:53:18;18.40;99.90
45339;DHT22;31071;51.478;5.710;2023-09-12T04:55:44;18.50;99.90
45339;DHT22;31071;51.478;5.710;2023-09-12T04:58:09;18.50;99.90
45339;DHT22;31071;51.478;5.710;2023-09-12T05:00:35;18.50;99.90
45339;DHT22;31071;51.478;5.710;2023-09-12T05:03:01;18.60;99.90
45339;DHT22;31071;51.478;5.710;2023-09-12T05:05:29;18.70;99.90
45339;DHT22;31071;51.478;5.710;2023-09-12T05:07:55;19.20;99.90
45339;DHT22;31071;51.478;5.710;2023-09-12T05:10:20;18.80;99.90
45339;DHT22;31071;51.478;5.710;2023-09-12T05:12:46;18.70;99.90
45339;DHT22;31071;51.478;5.710;2023-09-12T05:15:11;18.70;99.90
45339;DHT22;31071;51.478;5.710;2023-09-12T05:17:37;18.70;99.90
45339;DHT22;31071;51.478;5.710;2023-09-12T05:20:03;18.70;99.90
45339;DHT22;31071;51.478;5.710;2023-09-12T05:22:30;18.80;99.90
45339;DHT22;31071;51.478;5.710;2023-09-12T05:24:56;21.40;99.90
45339;DHT22;31071;51.478;5.710;2023-09-12T05:27:22;18.80;99.90
45339;DHT22;31071;51.478;5.710;2023-09-12T05:29:47;18.70;99.90
45339;DHT22;31071;51.478;5.710;2023-09-12T05:32:13;18.80;99.90
45339;DHT22;31071;51.478;5.710;2023-09-12T05:34:40;20.40;99.90
45339;DHT22;31071;51.478;5.710;2023-09-12T05:37:06;17.60;99.90
45339;DHT22;31071;51.478;5.710;2023-09-12T05:39:32;19.20;99.90
45339;DHT22;31071;51.478;5.710;2023-09-12T05:41:57;20.10;99.90
45339;DHT22;31071;51.478;5.710;2023-09-12T05:44:23;20.50;99.90
45339;DHT22;31071;51.478;5.710;2023-09-12T05:46:50;20.70;99.90
45339;DHT22;31071;51.478;5.710;2023-09-12T05:49:15;18.90;99.90
45339;DHT22;31071;51.478;5.710;2023-09-12T05:51:41;20.80;99.90
45339;DHT22;31071;51.478;5.710;2023-09-12T05:54:07;18.80;99.90
45339;DHT22;31071;51.478;5.710;2023-09-12T05:56:39;21.00;99.90
45339;DHT22;31071;51.478;5.710;2023-09-12T05:59:05;21.60;99.90
45339;DHT22;31071;51.478;5.710;2023-09-12T06:01:30;21.50;99.90
45339;DHT22;31071;51.478;5.710;2023-09-12T06:03:56;19.40;99.90
45339;DHT22;31071;51.478;5.710;2023-09-12T06:06:22;20.60;99.90
45339;DHT22;31071;51.478;5.710;2023-09-12T06:08:48;21.00;99.90
45339;DHT22;31071;51.478;5.710;2023-09-12T06:11:13;19.30;99.90
45339;DHT22;31071;51.478;5.710;2023-09-12T06:13:39;19.50;99.90
45339;DHT22;31071;51.478;5.710;2023-09-12T06:16:05;21.00;99.90
45339;DHT22;31071;51.478;5.710;2023-09-12T06:18:31;21.30;99.90
45339;DHT22;31071;51.478;5.710;2023-09-12T06:20:58;18.80;99.90
45339;DHT22;31071;51.478;5.710;2023-09-12T06:23:24;18.80;99.90
45339;DHT22;31071;51.478;5.710;2023-09-12T06:25:51;18.70;99.90
45339;DHT22;31071;51.478;5.710;2023-09-12T06:28:31;19.10;99.90
45339;DHT22;31071;51.478;5.710;2023-09-12T06:30:57;18.70;99.90
45339;DHT22;31071;51.478;5.710;2023-09-12T06:33:25;18.80;99.90
45339;DHT22;31071;51.478;5.710;2023-09-12T06:35:57;18.90;99.90
45339;DHT22;31071;51.478;5.710;2023-09-12T06:38:32;18.90;99.90
45339;DHT22;31071;51.478;5.710;2023-09-12T06:40:57;18.90;99.90
45339;DHT22;31071;51.478;5.710;2023-09-12T06:43:23;19.30;99.90
45339;DHT22;31071;51.478;5.710;2023-09-12T06:45:49;20.80;99.90
45339;DHT22;31071;51.478;5.710;2023-09-12T06:48:16;18.20;99.90
45339;DHT22;31071;51.478;5.710;2023-09-12T06:51:05;18.90;99.90
45339;DHT22;31071;51.478;5.710;2023-09-12T06:53:34;19.90;99.90
45339;DHT22;31071;51.478;5.710;2023-09-12T06:56:05;18.80;99.90
45339;DHT22;31071;51.478;5.710;2023-09-12T08:07:37;20.60;99.90
45339;DHT22;31071;51.478;5.710;2023-09-12T08:10:03;20.80;99.90
45339;DHT22;31071;51.478;5.710;2023-09-12T08:12:29;20.80;99.90
45339;DHT22;31071;51.478;5.710;2023-09-12T08:14:55;23.20;99.90
45339;DHT22;31071;51.478;5.710;2023-09-12T08:17:22;22.20;99.90
45339;DHT22;31071;51.478;5.710;2023-09-12T08:19:47;20.70;99.90
45339;DHT22;31071;51.478;5.710;2023-09-12T08:22:13;23.20;99.90
45339;DHT22;31071;51.478;5.710;2023-09-12T08:24:39;22.50;99.90
45339;DHT22;31071;51.478;5.710;2023-09-12T08:27:05;21.60;99.90
45339;DHT22;31071;51.478;5.710;2023-09-12T08:29:31;22.30;99.90
45339;DHT22;31071;51.478;5.710;2023-09-12T08:31:57;21.90;99.90
45339;DHT22;31071;51.478;5.710;2023-09-12T08:34:23;20.80;99.90
45339;DHT22;31071;51.478;5.710;2023-09-12T08:36:49;21.20;99.90
45339;DHT22;31071;51.478;5.710;2023-09-12T08:39:16;22.90;99.90
45339;DHT22;31071;51.478;5.710;2023-09-12T08:41:44;23.30;99.90
45339;DHT22;31071;51.478;5.710;2023-09-12T08:44:13;24.60;99.90
45339;DHT22;31071;51.478;5.710;2023-09-12T08:46:42;23.80;99.90
45339;DHT22;31071;51.478;5.710;2023-09-12T08:49:08;24.80;99.90
45339;DHT22;31071;51.478;5.710;2023-09-12T08:51:37;24.70;99.90
45339;DHT22;31071;51.478;5.710;2023-09-12T08:54:02;24.80;99.90
45339;DHT22;31071;51.478;5.710;2023-09-12T08:56:29;23.20;99.90
45339;DHT22;31071;51.478;5.710;2023-09-12T08:58:56;25.40;99.90
45339;DHT22;31071;51.478;5.710;2023-09-12T09:01:23;25.60;99.90
45339;DHT22;31071;51.478;5.710;2023-09-12T09:03:52;25.70;99.90
45339;DHT22;31071;51.478;5.710;2023-09-12T09:06:20;24.80;99.90
45339;DHT22;31071;51.478;5.710;2023-09-12T09:08:48;24.40;99.90
45339;DHT22;31071;51.478;5.710;2023-09-12T09:11:14;25.10;99.90
45339;DHT22;31071;51.478;5.710;2023-09-12T09:13:40;25.30;99.90
45339;DHT22;31071;51.478;5.710;2023-09-12T09:16:16;23.70;99.90
45339;DHT22;31071;51.478;5.710;2023-09-12T09:19:03;23.70;99.90
45339;DHT22;31071;51.478;5.710;2023-09-12T09:21:34;23.80;99.90
45339;DHT22;31071;51.478;5.710;2023-09-12T09:24:03;25.50;99.90
45339;DHT22;31071;51.478;5.710;2023-09-12T09:26:45;24.20;99.90
45339;DHT22;31071;51.478;5.710;2023-09-12T09:29:16;24.80;99.90
45339;DHT22;31071;51.478;5.710;2023-09-12T09:31:43;26.80;99.90
45339;DHT22;31071;51.478;5.710;2023-09-12T09:34:14;26.20;99.90
45339;DHT22;31071;51.478;5.710;2023-09-12T09:36:51;27.80;99.90
45339;DHT22;31071;51.478;5.710;2023-09-12T09:39:18;27.20;99.90
45339;DHT22;31071;51.478;5.710;2023-09-12T09:41:48;27.70;99.90
45339;DHT22;31071;51.478;5.710;2023-09-12T09:44:17;25.50;99.90
45339;DHT22;31071;51.478;5.710;2023-09-12T09:46:44;25.70;99.90
45339;DHT22;31071;51.478;5.710;2023-09-12T09:49:11;25.70;99.90
45339;DHT22;31071;51.478;5.710;2023-09-12T09:51:45;26.40;99.90
45339;DHT22;31071;51.478;5.710;2023-09-12T09:54:12;24.30;99.90
45339;DHT22;31071;51.478;5.710;2023-09-12T09:56:48;24.20;99.90
45339;DHT22;31071;51.478;5.710;2023-09-12T09:59:17;25.30;99.90
45339;DHT22;31071;51.478;5.710;2023-09-12T10:01:44;26.40;99.90
45339;DHT22;31071;51.478;5.710;2023-09-12T10:04:10;25.30;99.90
45339;DHT22;31071;51.478;5.710;2023-09-12T10:06:37;26.70;99.90
45339;DHT22;31071;51.478;5.710;2023-09-12T10:09:36;24.80;99.90
45339;DHT22;31071;51.478;5.710;2023-09-12T10:12:02;25.70;99.90
45339;DHT22;31071;51.478;5.710;2023-09-12T10:14:28;25.60;99.90
45339;DHT22;31071;51.478;5.710;2023-09-12T10:17:03;25.80;99.90
45339;DHT22;31071;51.478;5.710;2023-09-12T10:19:37;27.90;99.90
45339;DHT22;31071;51.478;5.710;2023-09-12T10:22:25;26.50;99.90
45339;DHT22;31071;51.478;5.710;2023-09-12T10:24:53;25.40;99.90
45339;DHT22;31071;51.478;5.710;2023-09-12T10:27:22;26.90;99.90
45339;DHT22;31071;51.478;5.710;2023-09-12T10:29:50;26.50;99.90
45339;DHT22;31071;51.478;5.710;2023-09-12T10:32:18;25.80;99.90
45339;DHT22;31071;51.478;5.710;2023-09-12T10:34:46;27.20;99.90
45339;DHT22;31071;51.478;5.710;2023-09-12T10:37:15;27.10;99.90
45339;DHT22;31071;51.478;5.710;2023-09-12T10:39:43;25.60;99.90
45339;DHT22;31071;51.478;5.710;2023-09-12T10:42:09;27.10;99.90
45339;DHT22;31071;51.478;5.710;2023-09-12T10:44:38;27.40;99.90
45339;DHT22;31071;51.478;5.710;2023-09-12T10:47:04;27.30;99.90
45339;DHT22;31071;51.478;5.710;2023-09-12T10:49:30;26.20;99.90
45339;DHT22;31071;51.478;5.710;2023-09-12T10:51:57;26.80;99.90
45339;DHT22;31071;51.478;5.710;2023-09-12T10:54:37;28.50;99.90
45339;DHT22;31071;51.478;5.710;2023-09-12T10:57:07;25.50;99.90
45339;DHT22;31071;51.478;5.710;2023-09-12T10:59:34;25.00;99.90
45339;DHT22;31071;51.478;5.710;2023-09-12T11:04:58;25.90;99.90
45339;DHT22;31071;51.478;5.710;2023-09-12T11:07:45;26.60;99.90
45339;DHT22;31071;51.478;5.710;2023-09-12T11:12:52;27.10;99.90
45339;DHT22;31071;51.478;5.710;2023-09-12T11:15:24;26.90;99.90
45339;DHT22;31071;51.478;5.710;2023-09-12T11:18:01;27.80;99.90
45339;DHT22;31071;51.478;5.710;2023-09-12T11:20:52;26.90;99.90
45339;DHT22;31071;51.478;5.710;2023-09-12T11:23:18;27.30;99.90
45339;DHT22;31071;51.478;5.710;2023-09-12T11:25:44;28.20;99.90
45339;DHT22;31071;51.478;5.710;2023-09-12T11:28:10;27.10;99.90
45339;DHT22;31071;51.478;5.710;2023-09-12T11:30:36;28.20;99.90
45339;DHT22;31071;51.478;5.710;2023-09-12T11:33:05;26.70;99.90
45339;DHT22;31071;51.478;5.710;2023-09-12T11:35:38;26.40;99.90
45339;DHT22;31071;51.478;5.710;2023-09-12T11:38:10;28.10;99.90
45339;DHT22;31071;51.478;5.710;2023-09-12T11:43:01;28.80;99.90
45339;DHT22;31071;51.478;5.710;2023-09-12T11:45:27;28.40;99.90
45339;DHT22;31071;51.478;5.710;2023-09-12T11:47:53;31.30;99.90
45339;DHT22;31071;51.478;5.710;2023-09-12T11:50:26;32.00;99.90
45339;DHT22;31071;51.478;5.710;2023-09-12T11:53:22;31.70;97.90
45339;DHT22;31071;51.478;5.710;2023-09-12T11:55:59;29.20;95.90
45339;DHT22;31071;51.478;5.710;2023-09-12T11:58:26;28.40;96.90
45339;DHT22;31071;51.478;5.710;2023-09-12T12:00:57;27.90;97.10
45339;DHT22;31071;51.478;5.710;2023-09-12T12:03:24;26.70;98.50
45339;DHT22;31071;51.478;5.710;2023-09-12T12:05:51;27.30;99.90
45339;DHT22;31071;51.478;5.710;2023-09-12T12:08:18;29.00;99.90
45339;DHT22;31071;51.478;5.710;2023-09-12T12:10:44;27.70;99.90
45339;DHT22;31071;51.478;5.710;2023-09-12T12:13:18;29.10;99.90
45339;DHT22;31071;51.478;5.710;2023-09-12T12:15:44;29.10;99.90
45339;DHT22;31071;51.478;5.710;2023-09-12T12:18:10;31.70;99.30
45339;DHT22;31071;51.478;5.710;2023-09-12T12:20:35;31.10;94.80
45339;DHT22;31071;51.478;5.710;2023-09-12T12:23:01;32.60;95.80
45339;DHT22;31071;51.478;5.710;2023-09-12T12:25:31;29.80;94.50
45339;DHT22;31071;51.478;5.710;2023-09-12T12:27:56;28.60;96.90
45339;DHT22;31071;51.478;5.710;2023-09-12T12:30:22;27.80;98.00
45339;DHT22;31071;51.478;5.710;2023-09-12T12:32:47;27.30;99.90
45339;DHT22;31071;51.478;5.710;2023-09-12T12:35:23;27.70;99.20
45339;DHT22;31071;51.478;5.710;2023-09-12T12:37:55;25.90;99.90
45339;DHT22;31071;51.478;5.710;2023-09-12T12:40:24;29.10;99.90
45339;DHT22;31071;51.478;5.710;2023-09-12T12:42:50;27.50;99.90
45339;DHT22;31071;51.478;5.710;2023-09-12T12:45:20;29.50;99.90
45339;DHT22;31071;51.478;5.710;2023-09-12T12:47:46;30.80;95.00
45339;DHT22;31071;51.478;5.710;2023-09-12T12:52:38;33.80;93.90
45339;DHT22;31071;51.478;5.710;2023-09-12T12:55:12;32.20;93.00
45339;DHT22;31071;51.478;5.710;2023-09-12T12:57:38;32.20;92.80
45339;DHT22;31071;51.478;5.710;2023-09-12T13:02:33;29.80;92.90
45339;DHT22;31071;51.478;5.710;2023-09-12T13:04:59;28.40;94.50
45339;DHT22;31071;51.478;5.710;2023-09-12T13:07:24;27.80;99.10
45339;DHT22;31071;51.478;5.710;2023-09-12T13:09:50;27.20;99.30
45339;DHT22;31071;51.478;5.710;2023-09-12T13:12:15;26.50;99.00
45339;DHT22;31071;51.478;5.710;2023-09-12T13:14:43;26.60;99.90
45339;DHT22;31071;51.478;5.710;2023-09-12T13:17:09;26.40;99.90
45339;DHT22;31071;51.478;5.710;2023-09-12T13:19:35;27.70;99.90
45339;DHT22;31071;51.478;5.710;2023-09-12T13:22:01;26.10;99.90
45339;DHT22;31071;51.478;5.710;2023-09-12T13:24:26;26.00;99.90
45339;DHT22;31071;51.478;5.710;2023-09-12T13:26:52;25.90;99.90
45339;DHT22;31071;51.478;5.710;2023-09-12T13:29:19;25.90;99.90
45339;DHT22;31071;51.478;5.710;2023-09-12T13:31:45;27.20;99.90
45339;DHT22;31071;51.478;5.710;2023-09-12T13:34:10;28.60;99.90
45339;DHT22;31071;51.478;5.710;2023-09-12T13:36:36;29.80;99.90
45339;DHT22;31071;51.478;5.710;2023-09-12T13:39:02;30.90;97.60
45339;DHT22;31071;51.478;5.710;2023-09-12T13:41:28;31.00;93.00
45339;DHT22;31071;51.478;5.710;2023-09-12T13:43:53;31.10;96.80
45339;DHT22;31071;51.478;5.710;2023-09-12T13:46:25;31.20;94.60
45339;DHT22;31071;51.478;5.710;2023-09-12T13:48:54;31.70;92.60
45339;DHT22;31071;51.478;5.710;2023-09-12T13:51:19;31.70;92.50
45339;DHT22;31071;51.478;5.710;2023-09-12T13:53:45;31.00;92.70
45339;DHT22;31071;51.478;5.710;2023-09-12T13:56:10;29.80;93.80
45339;DHT22;31071;51.478;5.710;2023-09-12T13:58:36;29.20;96.90
45339;DHT22;31071;51.478;5.710;2023-09-12T14:01:02;28.30;97.20
45339;DHT22;31071;51.478;5.710;2023-09-12T14:03:30;27.50;98.60
45339;DHT22;31071;51.478;5.710;2023-09-12T14:05:56;27.20;99.90
45339;DHT22;31071;51.478;5.710;2023-09-12T14:08:21;27.00;99.90
45339;DHT22;31071;51.478;5.710;2023-09-12T14:10:47;26.70;99.90
45339;DHT22;31071;51.478;5.710;2023-09-12T14:13:12;26.60;99.90
45339;DHT22;31071;51.478;5.710;2023-09-12T14:15:38;26.80;99.90
45339;DHT22;31071;51.478;5.710;2023-09-12T14:18:04;27.00;99.90
45339;DHT22;31071;51.478;5.710;2023-09-12T14:20:29;27.20;98.40
45339;DHT22;31071;51.478;5.710;2023-09-12T14:22:55;27.50;98.60
45339;DHT22;31071;51.478;5.710;2023-09-12T14:25:22;27.80;97.90
45339;DHT22;31071;51.478;5.710;2023-09-12T14:27:47;27.70;97.70
45339;DHT22;31071;51.478;5.710;2023-09-12T14:30:13;27.30;96.40
45339;DHT22;31071;51.478;5.710;2023-09-12T14:32:39;27.30;99.30
45339;DHT22;31071;51.478;5.710;2023-09-12T14:35:05;27.20;99.90
45339;DHT22;31071;51.478;5.710;2023-09-12T14:37:31;27.10;99.90
45339;DHT22;31071;51.478;5.710;2023-09-12T14:39:56;26.80;99.90
45339;DHT22;31071;51.478;5.710;2023-09-12T14:42:22;26.70;99.90
45339;DHT22;31071;51.478;5.710;2023-09-12T14:44:48;26.60;99.90
45339;DHT22;31071;51.478;5.710;2023-09-12T14:47:14;26.60;99.90
45339;DHT22;31071;51.478;5.710;2023-09-12T14:49:39;26.50;99.90
45339;DHT22;31071;51.478;5.710;2023-09-12T14:52:05;26.60;99.90
45339;DHT22;31071;51.478;5.710;2023-09-12T14:54:31;26.60;99.90
45339;DHT22;31071;51.478;5.710;2023-09-12T14:56:57;26.60;99.90
45339;DHT22;31071;51.478;5.710;2023-09-12T14:59:22;27.00;99.90
45339;DHT22;31071;51.478;5.710;2023-09-12T15:01:48;29.90;97.70
45339;DHT22;31071;51.478;5.710;2023-09-12T15:04:14;25.60;97.20
45339;DHT22;31071;51.478;5.710;2023-09-12T15:06:40;26.90;98.30
45339;DHT22;31071;51.478;5.710;2023-09-12T15:09:05;27.00;98.00
45339;DHT22;31071;51.478;5.710;2023-09-12T15:11:31;27.80;98.30
45339;DHT22;31071;51.478;5.710;2023-09-12T15:13:57;26.80;99.90
45339;DHT22;31071;51.478;5.710;2023-09-12T15:16:23;26.60;99.90
45339;DHT22;31071;51.478;5.710;2023-09-12T15:18:50;26.60;99.90
45339;DHT22;31071;51.478;5.710;2023-09-12T15:21:16;26.50;99.90
45339;DHT22;31071;51.478;5.710;2023-09-12T15:23:41;26.30;99.90
45339;DHT22;31071;51.478;5.710;2023-09-12T15:26:07;26.10;99.90
45339;DHT22;31071;51.478;5.710;2023-09-12T15:28:32;25.90;99.90
45339;DHT22;31071;51.478;5.710;2023-09-12T15:30:58;25.60;99.90
45339;DHT22;31071;51.478;5.710;2023-09-12T15:33:28;25.50;99.90
45339;DHT22;31071;51.478;5.710;2023-09-12T15:35:54;25.80;99.90
45339;DHT22;31071;51.478;5.710;2023-09-12T15:38:19;25.20;99.90
45339;DHT22;31071;51.478;5.710;2023-09-12T15:40:45;25.00;99.90
45339;DHT22;31071;51.478;5.710;2023-09-12T15:43:11;25.10;99.90
45339;DHT22;31071;51.478;5.710;2023-09-12T15:45:36;25.00;99.90
45339;DHT22;31071;51.478;5.710;2023-09-12T15:48:02;25.00;99.90
45339;DHT22;31071;51.478;5.710;2023-09-12T15:50:27;24.90;99.90
45339;DHT22;31071;51.478;5.710;2023-09-12T15:52:53;24.90;99.90
45339;DHT22;31071;51.478;5.710;2023-09-12T15:55:19;24.80;99.90
45339;DHT22;31071;51.478;5.710;2023-09-12T15:57:44;24.70;99.90
45339;DHT22;31071;51.478;5.710;2023-09-12T16:00:11;24.70;99.90
45339;DHT22;31071;51.478;5.710;2023-09-12T16:02:39;24.60;99.90
45339;DHT22;31071;51.478;5.710;2023-09-12T16:05:05;24.40;99.90
45339;DHT22;31071;51.478;5.710;2023-09-12T16:07:31;24.30;99.90
45339;DHT22;31071;51.478;5.710;2023-09-12T16:09:56;24.30;99.90
45339;DHT22;31071;51.478;5.710;2023-09-12T16:12:22;24.30;99.90
45339;DHT22;31071;51.478;5.710;2023-09-12T16:14:48;24.20;99.90
45339;DHT22;31071;51.478;5.710;2023-09-12T16:17:14;24.40;99.90
45339;DHT22;31071;51.478;5.710;2023-09-12T16:19:39;24.30;99.90
45339;DHT22;31071;51.478;5.710;2023-09-12T16:22:05;24.20;99.90
45339;DHT22;31071;51.478;5.710;2023-09-12T16:24:34;24.10;99.90
45339;DHT22;31071;51.478;5.710;2023-09-12T16:27:00;24.10;99.90
45339;DHT22;31071;51.478;5.710;2023-09-12T16:29:26;24.00;99.90
45339;DHT22;31071;51.478;5.710;2023-09-12T16:31:52;24.00;99.90
45339;DHT22;31071;51.478;5.710;2023-09-12T16:34:17;23.80;99.90
45339;DHT22;31071;51.478;5.710;2023-09-12T16:36:43;23.80;99.90
45339;DHT22;31071;51.478;5.710;2023-09-12T16:39:08;25.40;99.90
45339;DHT22;31071;51.478;5.710;2023-09-12T16:41:34;23.70;99.90
45339;DHT22;31071;51.478;5.710;2023-09-12T16:44:00;23.60;99.90
45339;DHT22;31071;51.478;5.710;2023-09-12T16:46:25;23.60;99.90
45339;DHT22;31071;51.478;5.710;2023-09-12T16:48:51;24.00;99.90
45339;DHT22;31071;51.478;5.710;2023-09-12T16:51:16;23.50;99.90
45339;DHT22;31071;51.478;5.710;2023-09-12T16:53:42;23.40;99.90
45339;DHT22;31071;51.478;5.710;2023-09-12T16:56:07;23.30;99.90
45339;DHT22;31071;51.478;5.710;2023-09-12T16:58:33;23.30;99.90